createdAt,value
2017-02-17T00:00:57.717Z,39.4
2017-02-17T00:03:30.262Z,39.4
2017-02-17T00:06:02.797Z,39.5
2017-02-17T00:08:35.794Z,39.4
2017-02-17T00:11:08.372Z,39.3
2017-02-17T00:13:40.980Z,39.3
2017-02-17T00:16:14.473Z,39.4
2017-02-17T00:18:47.033Z,39.3
2017-02-17T00:21:20.227Z,39.4
2017-02-17T00:23:52.800Z,39.4
2017-02-17T00:26:25.533Z,39.4
2017-02-17T00:28:58.706Z,39.4
2017-02-17T00:31:32.114Z,39.5
2017-02-17T00:34:04.682Z,39.4
2017-02-17T00:36:37.673Z,39.4
2017-02-17T00:39:10.230Z,39.4
2017-02-17T00:41:43.205Z,39.4
2017-02-17T00:44:15.750Z,39.5
2017-02-17T00:46:49.128Z,39.4
2017-02-17T00:49:22.139Z,39.6
2017-02-17T00:51:54.920Z,39.2
2017-02-17T00:54:27.491Z,39.1
2017-02-17T00:57:00.047Z,39.1
2017-02-17T00:59:33.031Z,39.1
2017-02-17T01:02:06.016Z,39
2017-02-17T01:04:38.953Z,38.8
2017-02-17T01:07:11.580Z,38.8
2017-02-17T01:09:44.236Z,38.8
2017-02-17T01:12:17.220Z,38.8
2017-02-17T01:14:49.827Z,38.8
2017-02-17T01:17:22.378Z,38.8
2017-02-17T01:19:54.909Z,38.8
2017-02-17T01:22:27.676Z,38.8
2017-02-17T01:25:01.088Z,38.9
2017-02-17T01:27:34.593Z,38.9
2017-02-17T01:30:07.146Z,38.9
2017-02-17T01:32:40.118Z,39
2017-02-17T01:35:12.716Z,39
2017-02-17T01:37:45.321Z,38.9
2017-02-17T01:40:17.844Z,39
2017-02-17T01:42:50.400Z,39
2017-02-17T01:45:23.342Z,38.9
2017-02-17T01:47:55.927Z,38.9
2017-02-17T01:50:28.469Z,38.9
2017-02-17T01:53:01.039Z,39
2017-02-17T01:55:34.011Z,39
2017-02-17T01:58:06.825Z,38.9
2017-02-17T02:00:39.360Z,38.9
2017-02-17T02:03:12.781Z,38.8
2017-02-17T02:05:45.725Z,38.9
2017-02-17T02:08:18.460Z,38.9
2017-02-17T02:10:51.005Z,38.8
2017-02-17T02:13:23.979Z,38.9
2017-02-17T02:15:56.556Z,38.9
2017-02-17T02:18:29.359Z,38.8
2017-02-17T02:21:01.927Z,38.9
2017-02-17T02:23:35.313Z,38.8
2017-02-17T02:26:08.091Z,38.9
2017-02-17T02:28:40.644Z,38.9
2017-02-17T02:31:14.487Z,38.8
2017-02-17T02:33:47.026Z,38.8
2017-02-17T02:36:20.037Z,38.8
2017-02-17T02:38:53.005Z,38.8
2017-02-17T02:41:25.767Z,38.9
2017-02-17T02:43:58.282Z,38.8
2017-02-17T02:46:31.256Z,38.8
2017-02-17T02:49:04.197Z,38.8
2017-02-17T02:51:36.720Z,38.7
2017-02-17T02:54:09.293Z,38.8
2017-02-17T02:56:42.262Z,38.8
2017-02-17T02:59:15.264Z,38.8
2017-02-17T03:01:47.804Z,38.8
2017-02-17T03:04:20.339Z,38.8
2017-02-17T03:06:52.877Z,38.7
2017-02-17T03:09:25.409Z,38.8
2017-02-17T03:11:57.960Z,38.8
2017-02-17T03:14:30.469Z,38.8
2017-02-17T03:17:03.016Z,38.8
2017-02-17T03:19:35.539Z,38.7
2017-02-17T03:22:08.488Z,38.8
2017-02-17T03:24:41.026Z,38.7
2017-02-17T03:27:13.561Z,38.8
2017-02-17T03:29:46.507Z,38.8
2017-02-17T03:32:19.047Z,38.8
2017-02-17T03:34:51.615Z,38.8
2017-02-17T03:37:24.141Z,38.8
2017-02-17T03:39:57.128Z,38.8
2017-02-17T03:42:29.689Z,38.8
2017-02-17T03:45:03.058Z,38.8
2017-02-17T03:47:35.603Z,38.8
2017-02-17T03:50:08.560Z,38.8
2017-02-17T03:52:41.120Z,38.8
2017-02-17T03:55:14.105Z,38.8
2017-02-17T03:57:46.628Z,38.8
2017-02-17T04:00:19.585Z,38.8
2017-02-17T04:02:52.116Z,38.7
2017-02-17T04:05:25.056Z,38.7
2017-02-17T04:07:57.632Z,38.7
2017-02-17T04:10:30.592Z,38.8
2017-02-17T04:13:03.125Z,38.8
2017-02-17T04:15:35.677Z,38.7
2017-02-17T04:18:08.204Z,38.8
2017-02-17T04:20:40.737Z,38.8
2017-02-17T04:23:14.148Z,38.8
2017-02-17T04:25:47.098Z,38.8
2017-02-17T04:28:19.645Z,38.8
2017-02-17T04:30:52.186Z,38.8
2017-02-17T04:33:24.703Z,38.7
2017-02-17T04:35:57.665Z,38.8
2017-02-17T04:38:30.604Z,38.7
2017-02-17T04:41:03.134Z,38.7
2017-02-17T04:43:35.677Z,38.7
2017-02-17T04:46:08.190Z,38.6
2017-02-17T04:48:40.727Z,38.7
2017-02-17T04:51:13.675Z,38.8
2017-02-17T04:53:46.639Z,38.8
2017-02-17T04:56:19.164Z,38.8
2017-02-17T04:58:51.703Z,38.7
2017-02-17T05:01:25.088Z,38.8
2017-02-17T05:03:57.657Z,38.8
2017-02-17T05:06:30.646Z,38.7
2017-02-17T05:09:03.165Z,38.8
2017-02-17T05:11:36.550Z,38.8
2017-02-17T05:14:09.120Z,38.8
2017-02-17T05:16:42.059Z,38.8
2017-02-17T05:19:14.589Z,38.8
2017-02-17T05:21:47.132Z,38.8
2017-02-17T05:24:19.656Z,38.8
2017-02-17T05:26:52.221Z,38.7
2017-02-17T05:29:24.755Z,38.8
2017-02-17T05:31:57.288Z,38.7
2017-02-17T05:34:30.036Z,38.8
2017-02-17T05:37:02.964Z,38.7
2017-02-17T05:39:35.500Z,38.8
2017-02-17T05:42:08.459Z,38.8
2017-02-17T05:44:41.023Z,38.8
2017-02-17T05:47:13.974Z,38.8
2017-02-17T05:49:46.542Z,38.8
2017-02-17T05:52:19.493Z,38.8
2017-02-17T05:54:52.472Z,38.7
2017-02-17T05:57:24.984Z,38.8
2017-02-17T05:59:57.539Z,38.8
2017-02-17T06:02:30.054Z,38.8
2017-02-17T06:05:02.605Z,38.8
2017-02-17T06:07:35.552Z,38.8
2017-02-17T06:10:08.521Z,38.8
2017-02-17T06:12:41.487Z,38.8
2017-02-17T06:15:14.003Z,38.8
2017-02-17T06:17:46.544Z,38.8
2017-02-17T06:20:19.098Z,38.8
2017-02-17T06:22:51.638Z,38.8
2017-02-17T06:25:24.222Z,38.8
2017-02-17T06:27:57.182Z,38.8
2017-02-17T06:30:29.717Z,38.8
2017-02-17T06:33:02.276Z,38.8
2017-02-17T06:35:34.836Z,38.8
2017-02-17T06:38:07.378Z,38.8
2017-02-17T06:40:40.533Z,38.8
2017-02-17T06:43:13.153Z,38.8
2017-02-17T06:45:45.689Z,38.8
2017-02-17T06:48:18.231Z,38.8
2017-02-17T06:50:50.802Z,38.9
2017-02-17T06:53:23.771Z,38.8
2017-02-17T06:55:56.290Z,38.8
2017-02-17T06:58:28.841Z,38.8
2017-02-17T07:01:01.784Z,38.8
2017-02-17T07:03:34.341Z,38.8
2017-02-17T07:06:07.306Z,38.8
2017-02-17T07:08:40.269Z,38.8
2017-02-17T07:11:13.645Z,38.8
2017-02-17T07:13:46.184Z,38.8
2017-02-17T07:16:18.697Z,38.7
2017-02-17T07:18:51.240Z,38.8
2017-02-17T07:21:24.215Z,38.8
2017-02-17T07:23:56.767Z,38.9
2017-02-17T07:26:29.953Z,38.8
2017-02-17T07:29:02.909Z,38.8
2017-02-17T07:31:35.928Z,38.9
2017-02-17T07:34:08.453Z,38.8
2017-02-17T07:36:40.993Z,38.8
2017-02-17T07:39:14.378Z,38.9
2017-02-17T07:41:47.365Z,38.8
2017-02-17T07:44:19.896Z,38.9
2017-02-17T07:46:52.465Z,38.9
2017-02-17T07:49:25.004Z,38.8
2017-02-17T07:51:57.567Z,39
2017-02-17T07:54:31.409Z,39
2017-02-17T07:57:04.380Z,38.9
2017-02-17T07:59:37.384Z,38.9
2017-02-17T08:02:09.901Z,38.9
2017-02-17T08:04:42.860Z,39
2017-02-17T08:07:15.398Z,39
2017-02-17T08:09:47.923Z,38.7
2017-02-17T08:12:20.469Z,38.8
2017-02-17T08:14:53.065Z,38.9
2017-02-17T08:17:25.634Z,38.8
2017-02-17T08:19:58.259Z,38.6
2017-02-17T08:22:30.840Z,38.6
2017-02-17T08:25:03.896Z,39
2017-02-17T08:27:37.401Z,39.6
2017-02-17T08:30:10.409Z,39.6
2017-02-17T08:32:43.742Z,39.6
2017-02-17T08:35:16.753Z,39.2
2017-02-17T08:37:49.741Z,39.7
2017-02-17T08:40:22.422Z,39.8
2017-02-17T08:42:55.395Z,39.8
2017-02-17T08:45:28.409Z,39.8
2017-02-17T08:48:01.017Z,39.9
2017-02-17T08:50:34.071Z,39.9
2017-02-17T08:53:06.668Z,39.8
2017-02-17T08:55:39.248Z,39.9
2017-02-17T08:58:12.219Z,39.8
2017-02-17T09:00:44.814Z,39.8
2017-02-17T09:03:17.743Z,40
2017-02-17T09:05:50.453Z,39.8
2017-02-17T09:08:23.048Z,39.9
2017-02-17T09:10:55.653Z,39.7
2017-02-17T09:13:28.236Z,39.2
2017-02-17T09:16:01.011Z,39.5
2017-02-17T09:18:33.590Z,39.5
2017-02-17T09:21:06.224Z,38.9
2017-02-17T09:23:39.208Z,38.3
2017-02-17T09:26:11.780Z,38.4
2017-02-17T09:28:44.322Z,39.2
2017-02-17T09:31:17.481Z,39.6
2017-02-17T09:33:50.048Z,39.5
2017-02-17T09:36:22.848Z,39.6
2017-02-17T09:38:55.414Z,39.6
2017-02-17T09:41:28.642Z,39.6
2017-02-17T09:44:01.418Z,39.6
2017-02-17T09:46:34.000Z,39.6
2017-02-17T09:49:06.879Z,39.5
2017-02-17T09:51:39.423Z,39.5
2017-02-17T09:54:12.086Z,39.5
2017-02-17T09:56:44.661Z,39.6
2017-02-17T09:59:17.476Z,39.5
2017-02-17T10:01:50.195Z,39.4
2017-02-17T10:04:22.919Z,39.4
2017-02-17T10:06:55.512Z,39.4
2017-02-17T10:09:28.099Z,39.5
2017-02-17T10:12:00.738Z,39.6
2017-02-17T10:14:34.177Z,39.6
2017-02-17T10:17:06.794Z,39.5
2017-02-17T10:19:39.767Z,39.5
2017-02-17T10:22:12.928Z,39.5
2017-02-17T10:24:45.484Z,39.5
2017-02-17T10:27:18.738Z,39.6
2017-02-17T10:29:51.723Z,39.6
2017-02-17T10:32:24.705Z,39.5
2017-02-17T10:34:57.289Z,39.5
2017-02-17T10:37:30.354Z,39.4
2017-02-17T10:40:02.920Z,39.5
2017-02-17T10:42:35.487Z,39.4
2017-02-17T10:45:08.493Z,39.5
2017-02-17T10:47:41.782Z,39.5
2017-02-17T10:50:14.841Z,39.5
2017-02-17T10:52:48.346Z,39.5
2017-02-17T10:55:20.912Z,39.5
2017-02-17T10:57:53.479Z,39.5
2017-02-17T11:00:26.502Z,39.6
2017-02-17T11:02:59.121Z,39.5
2017-02-17T11:05:31.772Z,39.5
2017-02-17T11:08:04.360Z,39.5
2017-02-17T11:10:37.099Z,39.6
2017-02-17T11:13:09.677Z,39.6
2017-02-17T11:15:42.513Z,39.6
2017-02-17T11:18:15.099Z,39.6
2017-02-17T11:20:47.631Z,39.6
2017-02-17T11:23:21.411Z,39.6
2017-02-17T11:25:53.998Z,39.6
2017-02-17T11:28:27.011Z,39.5
2017-02-17T11:30:59.623Z,39.5
2017-02-17T11:33:32.764Z,39.6
2017-02-17T11:36:05.360Z,39.5
2017-02-17T11:38:38.060Z,39.5
2017-02-17T11:41:10.950Z,39.5
2017-02-17T11:43:43.704Z,39.5
2017-02-17T11:46:16.281Z,39.5
2017-02-17T11:48:48.866Z,39.4
2017-02-17T11:51:21.601Z,39.3
2017-02-17T11:53:54.337Z,39.4
2017-02-17T11:56:26.875Z,39.3
2017-02-17T11:58:59.420Z,39.3
2017-02-17T12:01:31.988Z,39.3
2017-02-17T12:04:04.934Z,39.3
2017-02-17T12:06:37.485Z,39.2
2017-02-17T12:09:10.023Z,39.2
2017-02-17T12:11:42.804Z,39.2
2017-02-17T12:14:15.353Z,39.2
2017-02-17T12:16:48.334Z,39.2
2017-02-17T12:19:21.388Z,39.1
2017-02-17T12:21:53.951Z,39.3
2017-02-17T12:24:26.510Z,39.2
2017-02-17T12:26:59.875Z,38.8
2017-02-17T12:29:32.870Z,38.8
2017-02-17T12:32:05.896Z,39
2017-02-17T12:34:38.896Z,39.7
2017-02-17T12:37:11.447Z,39.5
2017-02-17T12:39:44.059Z,39.8
2017-02-17T12:42:17.239Z,40.1
2017-02-17T12:44:50.824Z,40.3
2017-02-17T12:47:23.376Z,40.4
2017-02-17T12:49:55.956Z,40.7
2017-02-17T12:52:28.960Z,40.8
2017-02-17T12:55:01.530Z,40.8
2017-02-17T12:57:34.959Z,40.8
2017-02-17T13:00:07.534Z,41
2017-02-17T13:02:40.081Z,41.1
2017-02-17T13:05:12.652Z,41.1
2017-02-17T13:07:45.210Z,41.2
2017-02-17T13:10:50.481Z,41.2
2017-02-17T13:13:23.051Z,41.4
2017-02-17T13:15:55.627Z,41.3
2017-02-17T13:18:29.196Z,41.5
2017-02-17T13:21:02.221Z,41.4
2017-02-17T13:23:34.765Z,41.5
2017-02-17T13:26:07.333Z,41.6
2017-02-17T13:28:39.884Z,41.7
2017-02-17T13:31:13.255Z,41.8
2017-02-17T13:33:46.041Z,42
2017-02-17T13:36:19.027Z,42
2017-02-17T13:38:52.518Z,42.2
2017-02-17T13:41:25.710Z,42.1
2017-02-17T13:43:58.958Z,42
2017-02-17T13:46:32.226Z,42
2017-02-17T13:49:04.975Z,41.9
2017-02-17T13:51:37.563Z,42.8
2017-02-17T13:54:10.109Z,42.7
2017-02-17T13:56:42.655Z,43.5
2017-02-17T13:59:15.537Z,43.4
2017-02-17T14:01:48.946Z,43.3
2017-02-17T14:04:21.595Z,43.2
2017-02-17T14:06:54.141Z,43.2
2017-02-17T14:09:26.694Z,43.3
2017-02-17T14:11:59.290Z,43.5
2017-02-17T14:14:31.834Z,43.7
2017-02-17T14:17:04.403Z,44
2017-02-17T14:19:36.978Z,44.1
2017-02-17T14:22:09.977Z,44.4
2017-02-17T14:24:42.546Z,44.1
2017-02-17T14:27:15.127Z,44.6
2017-02-17T14:29:48.983Z,44.9
2017-02-17T14:32:21.551Z,45.3
2017-02-17T14:34:54.119Z,45.6
2017-02-17T14:37:27.124Z,45.3
2017-02-17T14:40:00.101Z,45.5
2017-02-17T14:42:32.726Z,43.9
2017-02-17T14:45:05.601Z,43.2
2017-02-17T14:47:38.233Z,43
2017-02-17T14:50:10.967Z,43
2017-02-17T14:52:43.549Z,42.9
2017-02-17T14:55:17.500Z,42.8
2017-02-17T14:57:50.083Z,42.6
2017-02-17T15:00:22.729Z,42.4
2017-02-17T15:02:56.171Z,42.4
2017-02-17T15:05:28.801Z,42.3
2017-02-17T15:08:01.524Z,42.1
2017-02-17T15:10:34.495Z,42.2
2017-02-17T15:13:07.088Z,42
2017-02-17T15:15:39.633Z,41.9
2017-02-17T15:18:12.257Z,41.7
2017-02-17T15:20:44.837Z,41.5
2017-02-17T15:23:17.373Z,41.6
2017-02-17T15:25:49.924Z,41.5
2017-02-17T15:28:22.653Z,41.4
2017-02-17T15:30:55.198Z,41.3
2017-02-17T15:33:27.717Z,41.3
2017-02-17T15:36:00.688Z,41.8
2017-02-17T15:38:33.465Z,41.4
2017-02-17T15:41:06.896Z,41.3
2017-02-17T15:43:39.435Z,41.3
2017-02-17T15:46:12.011Z,41.3
2017-02-17T15:48:45.029Z,42.2
2017-02-17T15:51:17.608Z,42.7
2017-02-17T15:53:50.155Z,42.8
2017-02-17T15:56:23.141Z,42.8
2017-02-17T15:58:55.661Z,42.8
2017-02-17T16:01:28.668Z,42.8
2017-02-17T16:04:01.224Z,42.8
2017-02-17T16:06:34.529Z,42.8
2017-02-17T16:09:07.071Z,42.8
2017-02-17T16:11:39.609Z,42.7
2017-02-17T16:14:12.117Z,42.8
2017-02-17T16:16:44.662Z,42.6
2017-02-17T16:19:17.198Z,42.6
2017-02-17T16:21:50.160Z,42.6
2017-02-17T16:24:22.749Z,42.6
2017-02-17T16:26:55.457Z,42.6
2017-02-17T16:29:28.000Z,42.7
2017-02-17T16:32:00.547Z,42.7
2017-02-17T16:34:33.618Z,42.6
2017-02-17T16:37:06.141Z,42.6
2017-02-17T16:39:38.677Z,42.6
2017-02-17T16:42:11.216Z,42.7
2017-02-17T16:44:43.753Z,42.5
2017-02-17T16:47:16.938Z,42.5
2017-02-17T16:49:49.631Z,42.1
2017-02-17T16:52:22.154Z,41.6
2017-02-17T16:54:55.099Z,42.1
2017-02-17T16:57:28.087Z,42.2
2017-02-17T17:00:00.633Z,42.5
2017-02-17T17:02:34.588Z,42.1
2017-02-17T17:05:07.117Z,41.8
2017-02-17T17:07:39.638Z,42.3
2017-02-17T17:10:12.175Z,42.3
2017-02-17T17:12:45.167Z,42.4
2017-02-17T17:15:17.711Z,42.4
2017-02-17T17:17:50.600Z,42.5
2017-02-17T17:20:23.149Z,42.4
2017-02-17T17:22:56.303Z,42.3
2017-02-17T17:25:28.872Z,42.4
2017-02-17T17:28:01.835Z,42.4
2017-02-17T17:30:34.614Z,42.4
2017-02-17T17:33:07.555Z,42.4
2017-02-17T17:35:40.082Z,42.5
2017-02-17T17:38:12.595Z,42.5
2017-02-17T17:40:45.167Z,42.4
2017-02-17T17:43:18.152Z,42.5
2017-02-17T17:45:50.693Z,42.7
2017-02-17T17:48:23.233Z,42.5
2017-02-17T17:50:55.822Z,42.4
2017-02-17T17:53:29.057Z,42.3
2017-02-17T17:56:02.201Z,42.3
2017-02-17T17:58:35.196Z,42.3
2017-02-17T18:01:07.751Z,42.4
2017-02-17T18:03:40.733Z,42
2017-02-17T18:06:13.328Z,42
2017-02-17T18:08:46.289Z,42.1
2017-02-17T18:11:19.253Z,42
2017-02-17T18:13:51.789Z,42.1
2017-02-17T18:16:24.327Z,42.1
2017-02-17T18:18:56.873Z,42.2
2017-02-17T18:21:29.743Z,42.3
2017-02-17T18:24:02.687Z,41.9
2017-02-17T18:26:35.855Z,41.9
2017-02-17T18:29:08.387Z,42.5
2017-02-17T18:31:40.924Z,42.4
2017-02-17T18:34:13.468Z,42.4
2017-02-17T18:36:46.005Z,42.4
2017-02-17T18:39:18.549Z,42.4
2017-02-17T18:41:51.517Z,42.4
2017-02-17T18:44:24.059Z,42.4
2017-02-17T18:46:57.055Z,42.3
2017-02-17T18:49:29.608Z,42.3
2017-02-17T18:52:02.185Z,42.2
2017-02-17T18:54:34.771Z,42.1
2017-02-17T18:57:07.706Z,42.2
2017-02-17T18:59:40.282Z,42.2
2017-02-17T19:02:13.236Z,42.1
2017-02-17T19:04:45.764Z,42.1
2017-02-17T19:07:18.378Z,42
2017-02-17T19:09:50.919Z,42
2017-02-17T19:12:23.484Z,41.9
2017-02-17T19:14:56.010Z,41.9
2017-02-17T19:17:28.554Z,41.8
2017-02-17T19:20:01.092Z,41.8
2017-02-17T19:22:34.493Z,41.7
2017-02-17T19:25:07.028Z,41.8
2017-02-17T19:27:39.575Z,41.7
2017-02-17T19:30:12.124Z,41.7
2017-02-17T19:32:44.848Z,41.7
2017-02-17T19:35:17.389Z,41.7
2017-02-17T19:37:49.933Z,41.6
2017-02-17T19:40:22.484Z,41.7
2017-02-17T19:42:55.435Z,41.8
2017-02-17T19:45:28.281Z,41.7
2017-02-17T19:48:01.279Z,41.7
2017-02-17T19:50:33.801Z,41.7
2017-02-17T19:53:06.814Z,41.6
2017-02-17T19:55:39.341Z,41.7
2017-02-17T19:58:11.890Z,41.8
2017-02-17T20:00:44.410Z,41.7
2017-02-17T20:03:17.372Z,41.7
2017-02-17T20:05:49.950Z,41.6
2017-02-17T20:08:22.556Z,41.6
2017-02-17T20:10:55.528Z,41.6
2017-02-17T20:13:28.110Z,41.6
2017-02-17T20:16:00.718Z,41.6
2017-02-17T20:18:33.723Z,41.6
2017-02-17T20:21:06.291Z,41.5
2017-02-17T20:23:38.833Z,41.5
2017-02-17T20:26:11.814Z,41.5
2017-02-17T20:28:44.383Z,41.4
2017-02-17T20:31:17.368Z,41.4
2017-02-17T20:33:49.967Z,41.4
2017-02-17T20:36:22.547Z,41.3
2017-02-17T20:38:55.108Z,41.3
2017-02-17T20:41:29.436Z,41.3
2017-02-17T20:44:02.013Z,41.3
2017-02-17T20:46:34.569Z,41.3
2017-02-17T20:49:07.592Z,41.4
2017-02-17T20:51:40.155Z,41.4
2017-02-17T20:54:12.765Z,41.4
2017-02-17T20:56:45.316Z,41.3
2017-02-17T20:59:17.880Z,41.3
2017-02-17T21:01:50.448Z,41.3
2017-02-17T21:04:22.992Z,41.3
2017-02-17T21:06:55.959Z,41.3
2017-02-17T21:09:28.500Z,41.3
2017-02-17T21:12:01.068Z,41.3
2017-02-17T21:14:34.016Z,41.3
2017-02-17T21:19:48.632Z,41.4
2017-02-17T21:22:22.713Z,41.2
2017-02-17T21:24:55.354Z,41.4
2017-02-17T21:27:29.012Z,41.5
2017-02-17T21:30:02.383Z,41.4
2017-02-17T21:32:36.287Z,41.5
2017-02-17T21:35:24.501Z,41.5
2017-02-17T21:37:57.145Z,41.5
2017-02-17T21:40:30.004Z,41.5
2017-02-17T21:43:02.625Z,41.5
2017-02-17T21:45:35.266Z,41.6
2017-02-17T21:48:08.315Z,41.5
2017-02-17T21:50:41.394Z,41.6
2017-02-17T21:53:14.705Z,41.6
2017-02-17T21:56:01.331Z,41.8
2017-02-17T21:58:34.815Z,41.5
2017-02-17T22:01:07.776Z,41.4
2017-02-17T22:03:40.754Z,41.3
2017-02-17T22:06:14.030Z,41.3
2017-02-17T22:08:47.677Z,41.3
2017-02-17T22:11:20.376Z,41.3
2017-02-17T22:18:10.484Z,41.4
2017-02-17T22:20:45.632Z,41.4
2017-02-17T22:23:18.275Z,41.5
2017-02-17T22:25:51.965Z,41.5
2017-02-17T22:28:25.279Z,41.5
2017-02-17T22:30:57.924Z,41.4
2017-02-17T22:33:30.982Z,41.4
2017-02-17T22:36:03.656Z,41.6
2017-02-17T22:38:36.739Z,41.4
2017-02-17T22:41:09.377Z,41.4
2017-02-17T22:43:42.048Z,41.4
2017-02-17T22:46:14.666Z,41.5
2017-02-17T22:48:47.326Z,41.4
2017-02-17T22:51:19.977Z,41.4
2017-02-17T22:53:53.027Z,41.4
2017-02-17T22:56:26.108Z,41.4
2017-02-17T22:58:58.730Z,41.5
2017-02-17T23:01:31.589Z,41.4
2017-02-17T23:04:04.245Z,41.4
2017-02-17T23:06:36.864Z,41.4
2017-02-17T23:09:09.508Z,41.6
2017-02-17T23:11:42.138Z,41.5
2017-02-17T23:14:15.627Z,41.3
2017-02-17T23:16:48.257Z,41.5
2017-02-17T23:19:21.267Z,41.5
2017-02-17T23:21:53.878Z,41.2
2017-02-17T23:24:26.946Z,41.5
2017-02-17T23:26:59.585Z,41.3
2017-02-17T23:29:32.662Z,41.3
2017-02-17T23:32:05.280Z,41.3
2017-02-17T23:34:38.392Z,41.1
2017-02-17T23:37:13.456Z,41.3
